createdAt,value
2018-11-28T00:00:22.346Z,27.60
2018-11-28T00:02:51.444Z,29.10
2018-11-28T00:05:20.036Z,28.87
2018-11-28T00:07:49.071Z,27.57
2018-11-28T00:10:17.582Z,27.97
2018-11-28T00:12:46.330Z,29.43
2018-11-28T00:15:15.861Z,27.40
2018-11-28T00:17:44.630Z,28.33
2018-11-28T00:20:16.540Z,29.57
2018-11-28T00:22:46.082Z,28.97
2018-11-28T00:25:15.296Z,29.17
2018-11-28T00:27:44.456Z,29.40
2018-11-28T00:30:16.502Z,26.80
2018-11-28T00:32:45.505Z,28.70
2018-11-28T00:35:16.025Z,29.00
2018-11-28T00:37:45.094Z,27.10
2018-11-28T00:40:14.915Z,27.30
2018-11-28T00:42:43.616Z,29.47
2018-11-28T00:45:13.558Z,29.90
2018-11-28T00:47:42.103Z,28.67
2018-11-28T00:50:15.987Z,29.53
2018-11-28T00:52:45.229Z,30.53
2018-11-28T00:55:14.914Z,27.80
2018-11-28T00:57:43.610Z,30.67
2018-11-28T01:00:22.632Z,29.23
2018-11-28T01:02:52.251Z,26.40
2018-11-28T01:05:20.867Z,27.30
2018-11-28T01:07:51.466Z,27.27
2018-11-28T01:10:21.188Z,26.97
2018-11-28T01:12:50.634Z,26.23
2018-11-28T01:15:20.025Z,26.30
2018-11-28T01:17:49.088Z,27.20
2018-11-28T01:20:20.242Z,26.37
2018-11-28T01:22:49.110Z,27.00
2018-11-28T01:25:20.432Z,25.20
2018-11-28T01:27:49.934Z,25.70
2018-11-28T01:30:19.732Z,30.60
2018-11-28T01:32:48.776Z,26.17
2018-11-28T01:35:18.710Z,26.07
2018-11-28T01:37:47.584Z,28.07
2018-11-28T01:40:20.278Z,25.33
2018-11-28T01:42:49.014Z,27.70
2018-11-28T01:45:18.716Z,26.37
2018-11-28T01:47:47.846Z,26.47
2018-11-28T01:50:17.474Z,25.73
2018-11-28T01:52:46.402Z,25.03
2018-11-28T01:55:17.067Z,26.80
2018-11-28T01:57:45.572Z,26.27
2018-11-28T02:00:19.494Z,26.07
2018-11-28T02:02:49.889Z,27.53
2018-11-28T02:05:18.432Z,26.63
2018-11-28T02:07:47.014Z,28.57
2018-11-28T02:10:16.540Z,25.43
2018-11-28T02:12:45.122Z,25.37
2018-11-28T02:15:15.795Z,26.87
2018-11-28T02:17:44.390Z,27.53
2018-11-28T02:20:16.508Z,27.73
2018-11-28T02:22:45.802Z,27.00
2018-11-28T02:25:16.294Z,26.10
2018-11-28T02:27:45.520Z,27.90
2018-11-28T02:30:17.923Z,26.03
2018-11-28T02:32:47.410Z,26.80
2018-11-28T02:35:16.585Z,28.70
2018-11-28T02:37:45.835Z,28.13
2018-11-28T02:40:18.193Z,28.67
2018-11-28T02:42:47.596Z,26.97
2018-11-28T02:45:19.411Z,25.87
2018-11-28T02:47:49.468Z,26.33
2018-11-28T02:50:18.481Z,28.67
2018-11-28T02:52:47.574Z,26.30
2018-11-28T02:55:16.974Z,27.70
2018-11-28T02:57:47.820Z,27.07
2018-11-28T03:00:22.328Z,26.70
2018-11-28T03:02:51.337Z,25.53
2018-11-28T03:05:20.220Z,27.40
2018-11-28T03:07:49.725Z,24.90
2018-11-28T03:10:19.627Z,26.43
2018-11-28T03:12:48.327Z,27.53
2018-11-28T03:15:54.086Z,30.33
2018-11-28T03:18:23.599Z,23.83
2018-11-28T03:20:52.127Z,28.10
2018-11-28T03:23:21.170Z,26.73
2018-11-28T03:25:49.720Z,27.73
2018-11-28T03:28:18.526Z,27.47
2018-11-28T03:30:48.065Z,25.10
2018-11-28T03:33:16.893Z,25.30
2018-11-28T03:35:45.408Z,26.97
2018-11-28T03:38:14.914Z,26.77
2018-11-28T03:40:43.695Z,28.73
2018-11-28T03:43:13.292Z,25.87
2018-11-28T03:45:42.090Z,28.00
2018-11-28T03:48:11.100Z,27.30
2018-11-28T03:50:40.187Z,26.57
2018-11-28T03:53:09.514Z,24.90
2018-11-28T03:55:38.050Z,27.37
2018-11-28T03:58:08.351Z,24.50
2018-11-28T04:00:36.913Z,24.93
2018-11-28T04:03:06.541Z,28.10
2018-11-28T04:05:35.653Z,28.90
2018-11-28T04:08:04.468Z,26.27
2018-11-28T04:10:33.021Z,28.13
2018-11-28T04:13:02.046Z,27.03
2018-11-28T04:15:30.582Z,26.93
2018-11-28T04:17:59.423Z,28.87
2018-11-28T04:20:28.070Z,29.03
2018-11-28T04:22:56.985Z,27.80
2018-11-28T04:25:25.499Z,27.37
2018-11-28T04:27:54.358Z,24.50
2018-11-28T04:30:24.005Z,28.33
2018-11-28T04:32:54.085Z,27.17
2018-11-28T04:35:22.639Z,28.27
2018-11-28T04:37:51.531Z,28.50
2018-11-28T04:40:21.031Z,28.30
2018-11-28T04:42:50.527Z,27.33
2018-11-28T04:45:22.216Z,26.43
2018-11-28T04:47:51.839Z,28.60
2018-11-28T04:50:20.940Z,27.83
2018-11-28T04:52:49.752Z,30.87
2018-11-28T04:55:19.624Z,28.00
2018-11-28T04:57:48.713Z,28.90
2018-11-28T05:00:21.372Z,27.30
2018-11-28T05:02:50.503Z,26.20
2018-11-28T05:05:19.241Z,29.37
2018-11-28T05:07:48.855Z,29.53
2018-11-28T05:10:23.113Z,31.20
2018-11-28T05:12:52.827Z,29.13
2018-11-28T05:15:23.365Z,28.60
2018-11-28T05:17:53.500Z,32.07
2018-11-28T05:20:25.959Z,28.90
2018-11-28T05:22:58.463Z,27.30
2018-11-28T05:25:29.853Z,29.37
2018-11-28T05:28:01.278Z,30.83
2018-11-28T05:30:32.965Z,29.30
2018-11-28T05:33:05.374Z,29.13
2018-11-28T05:35:43.506Z,28.53
2018-11-28T05:38:16.550Z,29.20
2018-11-28T05:40:45.755Z,28.80
2018-11-28T05:43:14.890Z,27.37
2018-11-28T05:45:43.603Z,29.77
2018-11-28T05:48:13.299Z,27.43
2018-11-28T05:50:42.612Z,26.10
2018-11-28T05:53:11.315Z,29.13
2018-11-28T05:55:40.043Z,27.33
2018-11-28T05:58:09.555Z,26.53
2018-11-28T06:00:41.778Z,28.60
2018-11-28T06:03:13.553Z,26.17
2018-11-28T06:05:42.907Z,27.93
2018-11-28T06:08:11.829Z,31.90
2018-11-28T06:10:40.350Z,29.03
2018-11-28T06:13:10.223Z,29.67
2018-11-28T06:15:38.875Z,28.70
2018-11-28T06:18:08.878Z,29.07
2018-11-28T06:20:38.105Z,31.07
2018-11-28T06:23:07.409Z,27.87
2018-11-28T06:25:36.190Z,28.80
2018-11-28T06:28:05.036Z,26.87
2018-11-28T06:30:35.332Z,29.67
2018-11-28T06:33:03.880Z,26.23
2018-11-28T06:35:32.402Z,26.60
2018-11-28T06:38:02.014Z,32.77
2018-11-28T06:40:30.651Z,32.57
2018-11-28T06:42:59.748Z,27.83
2018-11-28T06:45:28.278Z,26.33
2018-11-28T06:47:57.352Z,28.77
2018-11-28T06:50:26.481Z,28.37
2018-11-28T06:52:55.347Z,28.03
2018-11-28T06:55:23.907Z,24.30
2018-11-28T06:57:52.735Z,25.93
2018-11-28T07:00:22.262Z,25.73
2018-11-28T07:02:53.398Z,24.03
2018-11-28T07:05:23.957Z,25.97
2018-11-28T07:07:53.296Z,25.33
2018-11-28T07:10:22.645Z,27.50
2018-11-28T07:12:51.391Z,26.03
2018-11-28T07:15:23.336Z,27.07
2018-11-28T07:17:53.077Z,26.10
2018-11-28T07:20:21.623Z,24.57
2018-11-28T07:22:50.956Z,25.60
2018-11-28T07:25:19.991Z,25.80
2018-11-28T07:27:49.686Z,24.37
2018-11-28T07:30:22.560Z,25.00
2018-11-28T07:32:52.879Z,25.30
2018-11-28T07:35:21.389Z,25.33
2018-11-28T07:37:50.285Z,24.57
2018-11-28T07:40:21.095Z,22.90
2018-11-28T07:43:03.017Z,25.53
2018-11-28T07:45:33.330Z,26.00
2018-11-28T07:48:02.478Z,27.70
2018-11-28T07:50:32.789Z,25.73
2018-11-28T07:53:01.301Z,25.67
2018-11-28T07:55:30.171Z,28.00
2018-11-28T07:57:58.931Z,26.57
2018-11-28T08:00:27.755Z,26.60
2018-11-28T08:02:56.393Z,23.63
2018-11-28T08:05:25.897Z,25.67
2018-11-28T08:07:55.227Z,24.27
2018-11-28T08:10:25.173Z,24.63
2018-11-28T08:12:58.416Z,25.10
2018-11-28T08:15:27.240Z,24.33
2018-11-28T08:17:56.426Z,28.50
2018-11-28T08:20:25.333Z,25.50
2018-11-28T08:22:53.932Z,30.37
2018-11-28T08:25:27.851Z,24.57
2018-11-28T08:27:52.273Z,24.80
2018-11-28T08:30:25.327Z,25.07
2018-11-28T08:32:57.036Z,22.30
2018-11-28T08:35:25.892Z,22.27
2018-11-28T08:37:55.045Z,24.40
2018-11-28T08:40:25.462Z,22.27
2018-11-28T08:42:55.411Z,26.90
2018-11-28T08:45:24.102Z,23.10
2018-11-28T08:47:57.314Z,24.53
2018-11-28T08:50:34.832Z,21.60
2018-11-28T08:53:03.740Z,25.07
2018-11-28T08:55:32.736Z,23.13
2018-11-28T08:58:01.519Z,22.50
2018-11-28T09:00:30.072Z,22.83
2018-11-28T09:02:59.295Z,25.90
2018-11-28T09:05:28.193Z,24.73
2018-11-28T09:07:57.465Z,22.80
2018-11-28T09:10:26.019Z,24.07
2018-11-28T09:12:55.069Z,24.37
2018-11-28T09:15:25.805Z,22.63
2018-11-28T09:17:54.991Z,21.07
2018-11-28T09:20:24.007Z,21.30
2018-11-28T09:22:52.839Z,25.90
2018-11-28T09:25:22.233Z,25.73
2018-11-28T09:27:54.338Z,21.03
2018-11-28T09:30:23.869Z,22.13
2018-11-28T09:32:52.870Z,23.10
2018-11-28T09:35:21.843Z,21.83
2018-11-28T09:37:50.897Z,22.10
2018-11-28T09:40:20.942Z,22.07
2018-11-28T09:42:50.801Z,21.83
2018-11-28T09:45:20.041Z,20.10
2018-11-28T09:47:48.949Z,21.00
2018-11-28T09:50:19.929Z,23.33
2018-11-28T09:52:49.507Z,23.10
2018-11-28T09:55:19.971Z,22.37
2018-11-28T09:57:49.185Z,23.17
2018-11-28T10:00:20.641Z,24.60
2018-11-28T10:02:51.174Z,22.57
2018-11-28T10:05:20.975Z,23.60
2018-11-28T10:07:49.806Z,21.13
2018-11-28T10:10:18.353Z,24.67
2018-11-28T10:12:47.068Z,25.70
2018-11-28T10:15:18.906Z,25.03
2018-11-28T10:17:47.785Z,24.13
2018-11-28T10:20:17.085Z,23.87
2018-11-28T10:22:46.722Z,24.60
2018-11-28T10:25:16.547Z,23.13
2018-11-28T10:27:47.200Z,23.60
2018-11-28T10:30:19.880Z,21.47
2018-11-28T10:32:49.535Z,23.00
2018-11-28T10:35:18.118Z,21.47
2018-11-28T10:37:47.821Z,23.37
2018-11-28T10:40:24.325Z,25.77
2018-11-28T10:42:56.374Z,22.43
2018-11-28T10:45:26.204Z,23.70
2018-11-28T10:47:54.806Z,23.20
2018-11-28T10:50:24.291Z,23.30
2018-11-28T10:52:52.903Z,24.87
2018-11-28T10:55:22.827Z,23.80
2018-11-28T10:57:51.951Z,22.60
2018-11-28T11:00:33.680Z,22.97
2018-11-28T11:03:07.964Z,21.17
2018-11-28T11:05:41.830Z,22.03
2018-11-28T11:08:15.986Z,22.20
2018-11-28T11:10:49.966Z,24.33
2018-11-28T11:13:24.135Z,22.83
2018-11-28T11:15:59.675Z,23.30
2018-11-28T11:18:29.659Z,24.63
2018-11-28T11:20:58.237Z,24.23
2018-11-28T11:23:27.019Z,24.83
2018-11-28T11:25:55.609Z,24.40
2018-11-28T11:28:24.290Z,25.03
2018-11-28T11:30:52.824Z,22.23
2018-11-28T11:33:22.091Z,22.27
2018-11-28T11:35:50.667Z,21.23
2018-11-28T11:38:20.003Z,25.63
2018-11-28T11:40:48.538Z,23.93
2018-11-28T11:43:17.587Z,22.53
2018-11-28T11:45:46.481Z,21.83
2018-11-28T11:48:15.357Z,24.40
2018-11-28T11:50:45.733Z,22.90
2018-11-28T11:53:14.632Z,21.00
2018-11-28T11:55:43.191Z,21.17
2018-11-28T11:58:11.944Z,20.00
2018-11-28T12:00:42.306Z,20.47
2018-11-28T12:03:12.435Z,21.10
2018-11-28T12:05:44.627Z,21.87
2018-11-28T12:08:14.076Z,21.17
2018-11-28T12:10:42.633Z,21.43
2018-11-28T12:13:11.427Z,21.07
2018-11-28T12:15:39.991Z,21.43
2018-11-28T12:18:09.209Z,18.43
2018-11-28T12:20:45.566Z,17.97
2018-11-28T12:23:14.427Z,18.53
2018-11-28T12:25:42.979Z,18.10
2018-11-28T12:28:11.927Z,18.50
2018-11-28T12:30:40.448Z,17.70
2018-11-28T12:33:09.278Z,20.70
2018-11-28T12:35:38.099Z,19.17
2018-11-28T12:38:07.482Z,16.70
2018-11-28T12:40:36.589Z,18.53
2018-11-28T12:43:07.766Z,17.30
2018-11-28T12:45:37.424Z,17.13
2018-11-28T12:48:05.976Z,15.07
2018-11-28T12:50:35.265Z,20.13
2018-11-28T12:53:04.012Z,14.70
2018-11-28T12:55:34.474Z,17.63
2018-11-28T12:58:04.282Z,17.00
2018-11-28T13:00:35.299Z,17.90
2018-11-28T13:03:05.070Z,15.60
2018-11-28T13:05:33.908Z,17.50
2018-11-28T13:08:03.095Z,15.40
2018-11-28T13:10:34.336Z,13.97
2018-11-28T13:13:03.532Z,15.70
2018-11-28T13:15:32.195Z,12.43
2018-11-28T13:18:01.235Z,12.73
2018-11-28T13:20:29.783Z,12.87
2018-11-28T13:22:58.345Z,14.30
2018-11-28T13:25:28.206Z,11.80
2018-11-28T13:27:57.083Z,12.17
2018-11-28T13:30:26.346Z,13.33
2018-11-28T13:32:55.564Z,12.00
2018-11-28T13:35:27.134Z,14.00
2018-11-28T13:38:02.452Z,14.30
2018-11-28T13:40:31.531Z,13.07
2018-11-28T13:43:00.232Z,13.90
2018-11-28T13:45:31.658Z,12.90
2018-11-28T13:48:00.932Z,13.20
2018-11-28T13:50:29.603Z,14.37
2018-11-28T13:52:59.238Z,12.80
2018-11-28T13:55:38.456Z,12.90
2018-11-28T13:58:05.049Z,11.90
2018-11-28T14:00:33.905Z,11.50
2018-11-28T14:03:02.646Z,13.30
2018-11-28T14:05:31.340Z,12.63
2018-11-28T14:07:59.893Z,11.93
2018-11-28T14:10:28.708Z,12.67
2018-11-28T14:12:58.004Z,13.50
2018-11-28T14:15:27.109Z,12.70
2018-11-28T14:18:01.206Z,14.83
2018-11-28T14:20:30.020Z,13.33
2018-11-28T14:22:58.619Z,14.53
2018-11-28T14:25:27.369Z,12.73
2018-11-28T14:27:56.708Z,12.53
2018-11-28T14:30:26.231Z,19.53
2018-11-28T14:32:54.812Z,14.23
2018-11-28T14:35:23.899Z,14.10
2018-11-28T14:37:53.058Z,11.53
2018-11-28T14:40:23.955Z,13.80
2018-11-28T14:42:57.633Z,12.87
2018-11-28T14:45:27.528Z,13.27
2018-11-28T14:47:57.806Z,14.43
2018-11-28T14:50:27.561Z,13.40
2018-11-28T14:52:57.660Z,13.00
2018-11-28T14:55:27.749Z,14.83
2018-11-28T14:57:57.161Z,12.90
2018-11-28T15:00:29.437Z,14.57
2018-11-28T15:03:07.365Z,15.80
2018-11-28T15:06:46.099Z,13.23
2018-11-28T15:09:20.310Z,13.60
2018-11-28T15:11:50.020Z,15.50
2018-11-28T15:14:19.553Z,15.07
2018-11-28T15:16:49.050Z,19.93
2018-11-28T15:19:17.687Z,15.97
2018-11-28T15:21:46.558Z,16.17
2018-11-28T15:24:15.459Z,16.07
2018-11-28T15:26:44.739Z,17.07
2018-11-28T15:29:13.321Z,15.93
2018-11-28T15:31:42.378Z,15.40
2018-11-28T15:34:11.188Z,13.60
2018-11-28T15:36:39.971Z,14.10
2018-11-28T15:39:09.630Z,13.60
2018-11-28T15:41:38.849Z,14.97
2018-11-28T15:44:08.886Z,15.33
2018-11-28T15:46:37.672Z,14.07
2018-11-28T15:49:07.569Z,14.80
2018-11-28T15:51:36.330Z,15.03
2018-11-28T15:54:05.217Z,16.10
2018-11-28T15:56:33.953Z,15.60
2018-11-28T15:59:03.408Z,14.83
2018-11-28T16:01:31.945Z,16.07
2018-11-28T16:04:01.397Z,16.80
2018-11-28T16:06:29.936Z,18.03
2018-11-28T16:08:59.033Z,18.20
2018-11-28T16:11:28.510Z,15.83
2018-11-28T16:13:57.415Z,15.97
2018-11-28T16:16:26.319Z,15.40
2018-11-28T16:18:57.867Z,15.03
2018-11-28T16:21:24.294Z,16.07
2018-11-28T16:23:53.081Z,16.67
2018-11-28T16:26:22.507Z,15.57
2018-11-28T16:28:51.087Z,15.70
2018-11-28T16:31:20.057Z,15.30
2018-11-28T16:33:48.641Z,14.77
2018-11-28T16:36:17.629Z,14.30
2018-11-28T16:38:46.137Z,15.03
2018-11-28T16:41:14.984Z,15.80
2018-11-28T16:43:43.568Z,15.00
2018-11-28T16:46:13.169Z,13.47
2018-11-28T16:48:42.329Z,13.60
2018-11-28T16:51:11.362Z,15.83
2018-11-28T16:53:39.901Z,14.67
2018-11-28T16:56:08.738Z,15.80
2018-11-28T16:58:37.712Z,14.20
2018-11-28T17:01:07.157Z,14.97
2018-11-28T17:03:35.790Z,15.83
2018-11-28T17:06:04.724Z,13.67
2018-11-28T17:08:33.265Z,15.80
2018-11-28T17:11:02.241Z,16.37
2018-11-28T17:13:30.778Z,16.60
2018-11-28T17:15:59.786Z,15.27
2018-11-28T17:18:29.081Z,14.93
2018-11-28T17:20:57.674Z,16.30
2018-11-28T17:23:27.195Z,15.80
2018-11-28T17:25:55.974Z,15.57
2018-11-28T17:28:24.933Z,15.70
2018-11-28T17:30:53.470Z,17.27
2018-11-28T17:33:22.304Z,16.30
2018-11-28T17:35:50.965Z,15.80
2018-11-28T17:38:20.108Z,17.50
2018-11-28T17:40:48.687Z,17.13
2018-11-28T17:43:17.458Z,14.80
2018-11-28T17:45:46.422Z,17.20
2018-11-28T17:48:17.287Z,15.70
2018-11-28T17:50:45.943Z,15.57
2018-11-28T17:53:15.577Z,16.20
2018-11-28T17:55:50.896Z,16.60
2018-11-28T17:58:20.235Z,15.60
2018-11-28T18:00:48.822Z,15.93
2018-11-28T18:03:17.433Z,16.03
2018-11-28T18:05:51.844Z,16.40
2018-11-28T18:08:20.562Z,16.20
2018-11-28T18:10:50.884Z,14.23
2018-11-28T18:13:19.843Z,15.83
2018-11-28T18:15:52.294Z,16.30
2018-11-28T18:18:22.766Z,16.77
2018-11-28T18:20:51.375Z,17.43
2018-11-28T18:23:19.965Z,15.57
2018-11-28T18:25:48.939Z,15.70
2018-11-28T18:28:18.118Z,16.20
2018-11-28T18:30:46.827Z,16.30
2018-11-28T18:33:16.156Z,16.50
2018-11-28T18:35:45.230Z,17.73
2018-11-28T18:38:14.567Z,19.13
2018-11-28T18:40:43.411Z,21.00
2018-11-28T18:43:12.423Z,17.37
2018-11-28T18:45:43.073Z,17.60
2018-11-28T18:48:13.972Z,16.40
2018-11-28T18:50:42.524Z,18.07
2018-11-28T18:53:11.227Z,19.37
2018-11-28T18:55:39.738Z,20.50
2018-11-28T18:58:11.020Z,19.67
2018-11-28T19:00:39.895Z,22.43
2018-11-28T19:03:08.668Z,24.50
2018-11-28T19:05:37.698Z,25.23
2018-11-28T19:08:07.542Z,23.10
2018-11-28T19:10:36.659Z,20.47
2018-11-28T19:13:05.877Z,19.47
2018-11-28T19:15:34.702Z,19.93
2018-11-28T19:18:03.256Z,19.97
2018-11-28T19:20:32.272Z,20.83
2018-11-28T19:23:00.871Z,20.93
2018-11-28T19:25:30.646Z,19.17
2018-11-28T19:27:59.170Z,19.00
2018-11-28T19:30:42.498Z,19.10
2018-11-28T19:33:13.897Z,18.80
2018-11-28T19:35:43.073Z,21.00
2018-11-28T19:38:13.003Z,20.10
2018-11-28T19:40:47.886Z,22.30
2018-11-28T19:43:16.446Z,24.57
2018-11-28T19:45:45.694Z,23.53
2018-11-28T19:48:15.106Z,29.60
2018-11-28T19:50:44.342Z,24.30
2018-11-28T19:53:12.894Z,22.10
2018-11-28T19:55:42.937Z,28.60
2018-11-28T19:58:12.707Z,23.53
2018-11-28T20:00:43.864Z,30.83
2018-11-28T20:03:12.453Z,28.47
2018-11-28T20:05:41.357Z,25.57
2018-11-28T20:08:10.254Z,22.47
2018-11-28T20:10:39.404Z,22.80
2018-11-28T20:13:16.438Z,17.90
2018-11-28T20:15:50.300Z,20.80
2018-11-28T20:18:19.001Z,22.23
2018-11-28T20:20:48.049Z,20.10
2018-11-28T20:23:17.613Z,19.37
2018-11-28T20:25:46.662Z,18.50
2018-11-28T20:28:15.524Z,18.53
2018-11-28T20:30:45.616Z,21.90
2018-11-28T20:33:16.424Z,18.17
2018-11-28T20:35:46.391Z,18.77
2018-11-28T20:38:20.976Z,19.10
2018-11-28T20:40:50.226Z,18.80
2018-11-28T20:43:20.040Z,19.30
2018-11-28T20:45:49.591Z,18.93
2018-11-28T20:48:20.454Z,19.63
2018-11-28T20:50:50.057Z,20.80
2018-11-28T20:53:19.898Z,20.70
2018-11-28T20:55:48.992Z,22.07
2018-11-28T20:58:18.717Z,20.37
2018-11-28T21:00:47.355Z,20.57
2018-11-28T21:03:16.220Z,19.67
2018-11-28T21:05:45.420Z,20.73
2018-11-28T21:08:14.698Z,27.70
2018-11-28T21:10:43.648Z,23.10
2018-11-28T21:13:13.302Z,24.00
2018-11-28T21:15:44.460Z,20.17
2018-11-28T21:18:13.275Z,18.33
2018-11-28T21:20:43.782Z,20.43
2018-11-28T21:23:14.112Z,21.30
2018-11-28T21:25:42.891Z,20.37
2018-11-28T21:28:11.606Z,19.70
2018-11-28T21:30:40.162Z,20.63
2018-11-28T21:33:10.250Z,20.97
2018-11-28T21:35:40.454Z,23.00
2018-11-28T21:38:09.650Z,19.10
2018-11-28T21:40:38.532Z,18.63
2018-11-28T21:43:07.499Z,18.23
2018-11-28T21:45:36.912Z,18.87
2018-11-28T21:48:07.619Z,20.67
2018-11-28T21:50:36.559Z,19.30
2018-11-28T21:53:06.264Z,19.63
2018-11-28T21:55:35.114Z,20.77
2018-11-28T21:58:04.218Z,19.10
2018-11-28T22:00:33.019Z,19.67
2018-11-28T22:03:02.127Z,20.13
2018-11-28T22:05:31.082Z,18.03
2018-11-28T22:07:59.995Z,18.80
2018-11-28T22:10:28.764Z,20.43
2018-11-28T22:12:57.791Z,18.27
2018-11-28T22:15:27.622Z,18.67
2018-11-28T22:17:57.449Z,19.33
2018-11-28T22:20:27.326Z,18.63
2018-11-28T22:22:56.489Z,19.97
2018-11-28T22:25:26.795Z,19.27
2018-11-28T22:27:55.707Z,18.27
2018-11-28T22:30:26.218Z,19.67
2018-11-28T22:32:55.022Z,20.43
2018-11-28T22:35:23.615Z,21.17
2018-11-28T22:37:52.994Z,21.40
2018-11-28T22:40:36.242Z,21.10
2018-11-28T22:43:05.785Z,21.10
2018-11-28T22:45:35.044Z,21.03
2018-11-28T22:48:04.561Z,25.70
2018-11-28T22:50:33.166Z,21.90
2018-11-28T22:53:02.167Z,22.80
2018-11-28T22:55:30.715Z,22.50
2018-11-28T22:57:59.675Z,23.93
2018-11-28T23:00:33.640Z,22.73
2018-11-28T23:03:04.231Z,20.93
2018-11-28T23:05:42.372Z,20.13
2018-11-28T23:08:12.178Z,21.37
2018-11-28T23:10:40.886Z,21.67
2018-11-28T23:13:10.936Z,21.80
2018-11-28T23:15:41.046Z,23.60
2018-11-28T23:18:10.583Z,23.03
2018-11-28T23:20:39.526Z,21.93
2018-11-28T23:23:09.037Z,24.03
2018-11-28T23:25:37.999Z,23.60
2018-11-28T23:28:07.478Z,24.73
2018-11-28T23:30:36.838Z,22.40
2018-11-28T23:33:07.024Z,22.30
2018-11-28T23:35:35.542Z,24.80
2018-11-28T23:38:04.509Z,23.07
2018-11-28T23:40:33.607Z,21.70
2018-11-28T23:43:02.848Z,24.90
2018-11-28T23:45:32.380Z,23.17
2018-11-28T23:48:01.301Z,22.33
2018-11-28T23:50:29.934Z,24.30
2018-11-28T23:52:58.880Z,22.70
2018-11-28T23:55:29.677Z,23.73
2018-11-28T23:57:58.462Z,22.10
